createdAt,value
2023-02-08T00:01:23.360Z,15.97
2023-02-08T00:03:52.498Z,16.23
2023-02-08T00:06:19.549Z,15.70
2023-02-08T00:08:47.054Z,14.10
2023-02-08T00:11:17.168Z,15.23
2023-02-08T00:13:50.290Z,15.50
2023-02-08T00:16:21.300Z,15.10
2023-02-08T00:18:49.922Z,14.33
2023-02-08T00:21:18.767Z,14.20
2023-02-08T00:23:46.673Z,14.32
2023-02-08T00:26:14.751Z,14.33
2023-02-08T00:28:43.574Z,14.30
2023-02-08T00:31:19.917Z,14.77
2023-02-08T00:33:47.095Z,14.13
2023-02-08T00:36:14.175Z,13.97
2023-02-08T00:38:43.002Z,15.27
2023-02-08T00:41:10.252Z,14.07
2023-02-08T00:43:37.484Z,14.30
2023-02-08T00:46:05.066Z,14.97
2023-02-08T00:48:33.196Z,14.30
2023-02-08T00:51:11.908Z,14.93
2023-02-08T00:53:40.735Z,14.32
2023-02-08T00:56:09.189Z,14.82
2023-02-08T01:01:13.580Z,15.17
2023-02-08T01:03:43.284Z,15.13
2023-02-08T01:06:14.195Z,15.75
2023-02-08T01:08:41.146Z,16.23
2023-02-08T01:11:12.027Z,16.23
2023-02-08T01:13:39.226Z,14.80
2023-02-08T01:16:13.196Z,14.00
2023-02-08T01:18:41.862Z,15.50
2023-02-08T01:21:11.859Z,14.73
2023-02-08T01:23:40.017Z,14.90
2023-02-08T01:26:08.348Z,14.73
2023-02-08T01:28:35.991Z,16.27
2023-02-08T01:31:16.362Z,15.20
2023-02-08T01:33:43.404Z,16.93
2023-02-08T01:36:10.851Z,17.33
2023-02-08T01:38:38.871Z,16.90
2023-02-08T01:41:08.201Z,16.40
2023-02-08T01:44:02.069Z,16.60
2023-02-08T01:46:32.830Z,15.80
2023-02-08T01:49:04.802Z,16.35
2023-02-08T01:51:37.445Z,17.40
2023-02-08T01:54:09.836Z,16.80
2023-02-08T01:56:42.530Z,16.33
2023-02-08T01:59:17.332Z,15.60
2023-02-08T02:01:46.361Z,16.77
2023-02-08T02:04:13.605Z,15.98
2023-02-08T02:06:45.877Z,15.63
2023-02-08T02:09:31.781Z,16.10
2023-02-08T02:12:01.208Z,15.77
2023-02-08T02:14:29.009Z,16.73
2023-02-08T02:16:55.961Z,16.40
2023-02-08T02:19:22.924Z,15.60
2023-02-08T02:22:27.517Z,16.57
2023-02-08T02:25:36.528Z,16.73
2023-02-08T02:30:42.762Z,16.33
2023-02-08T02:33:25.097Z,15.60
2023-02-08T02:35:57.888Z,18.13
2023-02-08T02:38:34.053Z,17.20
2023-02-08T02:41:43.245Z,18.00
2023-02-08T02:44:22.218Z,18.07
2023-02-08T02:46:58.100Z,16.95
2023-02-08T02:49:39.366Z,17.00
2023-02-08T02:52:20.476Z,17.27
2023-02-08T02:54:52.380Z,16.27
2023-02-08T02:57:24.650Z,16.50
2023-02-08T02:59:51.962Z,19.03
2023-02-08T03:02:19.028Z,18.27
2023-02-08T03:04:50.406Z,36.20
2023-02-08T03:07:20.298Z,28.67
2023-02-08T03:10:08.584Z,24.33
2023-02-08T03:13:10.005Z,24.05
2023-02-08T03:15:55.435Z,33.63
2023-02-08T03:18:34.234Z,18.47
2023-02-08T03:21:12.996Z,23.00
2023-02-08T03:23:48.839Z,27.70
2023-02-08T03:26:15.826Z,20.63
2023-02-08T03:29:02.436Z,20.43
2023-02-08T03:31:44.222Z,20.77
2023-02-08T03:34:34.109Z,22.57
2023-02-08T03:37:17.837Z,22.83
2023-02-08T03:39:48.696Z,23.47
2023-02-08T03:42:21.848Z,24.57
2023-02-08T03:45:00.561Z,23.70
2023-02-08T03:47:32.771Z,21.57
2023-02-08T03:50:07.002Z,22.83
2023-02-08T03:52:36.222Z,24.07
2023-02-08T03:55:12.123Z,18.73
2023-02-08T03:57:57.738Z,22.77
2023-02-08T04:00:25.508Z,24.03
2023-02-08T04:02:57.322Z,21.57
2023-02-08T04:05:24.939Z,22.70
2023-02-08T04:07:52.789Z,21.43
2023-02-08T04:10:20.413Z,23.27
2023-02-08T04:12:49.191Z,22.63
2023-02-08T04:15:16.986Z,16.10
2023-02-08T04:17:44.215Z,20.63
2023-02-08T04:20:12.202Z,21.37
2023-02-08T04:22:39.526Z,22.33
2023-02-08T04:25:06.525Z,20.47
2023-02-08T04:27:33.560Z,19.93
2023-02-08T04:30:01.076Z,19.77
2023-02-08T04:32:28.200Z,20.10
2023-02-08T04:34:55.275Z,20.47
2023-02-08T04:37:22.280Z,19.60
2023-02-08T04:39:49.687Z,21.27
2023-02-08T04:42:16.799Z,20.50
2023-02-08T04:44:43.710Z,21.07
2023-02-08T04:47:10.851Z,20.30
2023-02-08T04:49:37.797Z,20.17
2023-02-08T04:52:05.196Z,20.37
2023-02-08T04:54:32.412Z,20.50
2023-02-08T04:56:59.349Z,19.53
2023-02-08T04:59:26.524Z,21.50
2023-02-08T05:01:53.481Z,23.27
2023-02-08T05:04:20.524Z,29.23
2023-02-08T05:06:48.611Z,20.67
2023-02-08T05:09:15.507Z,19.73
2023-02-08T05:11:42.771Z,21.10
2023-02-08T05:14:10.328Z,19.43
2023-02-08T05:16:37.335Z,20.57
2023-02-08T05:19:04.198Z,19.40
2023-02-08T05:21:31.244Z,20.60
2023-02-08T05:23:58.159Z,20.00
2023-02-08T05:26:25.262Z,21.17
2023-02-08T05:28:52.363Z,21.40
2023-02-08T05:31:25.385Z,21.70
2023-02-08T05:33:53.226Z,21.77
2023-02-08T05:36:23.288Z,35.20
2023-02-08T05:38:50.623Z,26.03
2023-02-08T05:41:17.857Z,25.27
2023-02-08T05:43:46.259Z,23.33
2023-02-08T05:46:13.722Z,24.00
2023-02-08T05:48:40.953Z,21.40
2023-02-08T05:51:08.232Z,21.87
2023-02-08T05:53:35.567Z,23.13
2023-02-08T05:56:02.838Z,23.23
2023-02-08T05:58:30.402Z,21.80
2023-02-08T06:00:57.412Z,20.90
2023-02-08T06:03:24.426Z,22.30
2023-02-08T06:05:51.637Z,22.40
2023-02-08T06:08:18.551Z,23.50
2023-02-08T06:10:49.346Z,24.00
2023-02-08T06:13:16.308Z,24.70
2023-02-08T06:15:43.513Z,24.20
2023-02-08T06:18:11.069Z,23.03
2023-02-08T06:20:38.759Z,22.73
2023-02-08T06:23:06.028Z,22.57
2023-02-08T06:25:33.266Z,20.70
2023-02-08T06:28:00.223Z,20.67
2023-02-08T06:30:27.479Z,19.87
2023-02-08T06:32:54.875Z,21.23
2023-02-08T06:35:21.929Z,21.07
2023-02-08T06:37:48.804Z,19.67
2023-02-08T06:40:16.026Z,19.13
2023-02-08T06:42:43.194Z,17.20
2023-02-08T06:45:13.359Z,17.23
2023-02-08T06:47:40.855Z,18.60
2023-02-08T06:50:08.209Z,17.63
2023-02-08T06:52:35.725Z,19.50
2023-02-08T06:55:02.795Z,18.93
2023-02-08T06:57:29.980Z,17.03
2023-02-08T06:59:56.919Z,18.73
2023-02-08T07:02:24.147Z,20.07
2023-02-08T07:04:51.357Z,22.37
2023-02-08T07:07:19.423Z,24.87
2023-02-08T07:09:46.667Z,26.50
2023-02-08T07:12:13.844Z,26.17
2023-02-08T07:14:42.740Z,25.10
2023-02-08T07:17:10.967Z,24.63
2023-02-08T07:19:38.594Z,25.48
2023-02-08T07:22:08.450Z,21.43
2023-02-08T07:24:40.870Z,23.80
2023-02-08T07:27:09.688Z,26.60
2023-02-08T07:29:37.040Z,26.33
2023-02-08T07:32:05.541Z,26.40
2023-02-08T07:34:37.805Z,24.42
2023-02-08T07:37:05.349Z,25.80
2023-02-08T07:39:32.406Z,24.53
2023-02-08T07:41:59.581Z,26.40
2023-02-08T07:44:30.520Z,24.57
2023-02-08T07:46:57.632Z,22.40
2023-02-08T07:49:24.550Z,22.40
2023-02-08T07:51:51.580Z,23.87
2023-02-08T07:54:18.513Z,21.97
2023-02-08T07:56:45.622Z,21.87
2023-02-08T07:59:12.570Z,22.67
2023-02-08T08:01:39.624Z,21.50
2023-02-08T08:04:06.606Z,22.33
2023-02-08T08:06:33.929Z,24.53
2023-02-08T08:09:00.959Z,22.27
2023-02-08T08:11:28.250Z,21.67
2023-02-08T08:13:55.188Z,23.90
2023-02-08T08:16:22.772Z,24.67
2023-02-08T08:18:50.805Z,22.60
2023-02-08T08:21:17.740Z,21.63
2023-02-08T08:23:45.239Z,19.57
2023-02-08T08:26:18.088Z,21.63
2023-02-08T08:28:47.087Z,21.97
2023-02-08T08:31:17.050Z,21.35
2023-02-08T08:33:44.454Z,23.53
2023-02-08T08:36:11.718Z,19.93
2023-02-08T08:38:41.892Z,20.17
2023-02-08T08:41:10.918Z,21.43
2023-02-08T08:43:38.679Z,21.80
2023-02-08T08:46:06.899Z,21.50
2023-02-08T08:48:38.903Z,28.03
2023-02-08T08:51:06.941Z,30.65
2023-02-08T08:53:35.430Z,25.15
2023-02-08T08:56:03.080Z,22.93
2023-02-08T08:58:30.072Z,21.43
2023-02-08T09:01:01.157Z,21.53
2023-02-08T09:03:28.847Z,28.50
2023-02-08T09:05:56.544Z,19.53
2023-02-08T09:08:23.729Z,18.47
2023-02-08T09:10:50.913Z,19.37
2023-02-08T09:13:20.027Z,16.67
2023-02-08T09:15:48.703Z,14.83
2023-02-08T09:18:15.877Z,15.85
2023-02-08T09:20:43.648Z,15.73
2023-02-08T09:23:11.672Z,15.90
2023-02-08T09:25:38.632Z,16.60
2023-02-08T09:28:05.697Z,18.57
2023-02-08T09:30:33.525Z,15.70
2023-02-08T09:33:00.925Z,13.82
2023-02-08T09:35:27.832Z,14.37
2023-02-08T09:37:58.355Z,14.13
2023-02-08T09:40:38.100Z,12.70
2023-02-08T09:43:13.092Z,13.35
2023-02-08T09:45:59.814Z,16.17
2023-02-08T09:48:39.127Z,12.83
2023-02-08T09:51:22.697Z,12.55
2023-02-08T09:53:58.790Z,12.77
2023-02-08T09:56:36.347Z,13.63
2023-02-08T09:59:03.745Z,11.77
2023-02-08T10:01:34.315Z,15.65
2023-02-08T10:04:13.699Z,12.90
2023-02-08T10:06:41.364Z,12.65
2023-02-08T10:09:14.514Z,12.15
2023-02-08T10:11:58.405Z,11.48
2023-02-08T10:14:31.328Z,11.75
2023-02-08T10:17:11.317Z,13.03
2023-02-08T10:19:59.676Z,13.57
2023-02-08T10:22:54.669Z,11.98
2023-02-08T10:25:36.099Z,10.98
2023-02-08T10:28:06.219Z,10.93
2023-02-08T10:30:40.199Z,12.43
2023-02-08T10:33:17.741Z,12.25
2023-02-08T10:35:50.213Z,12.63
2023-02-08T10:38:44.139Z,12.68
2023-02-08T10:41:24.782Z,10.43
2023-02-08T10:44:13.857Z,13.35
2023-02-08T10:47:13.459Z,12.10
2023-02-08T10:50:09.616Z,10.75
2023-02-08T10:52:43.159Z,9.75
2023-02-08T10:55:20.147Z,10.48
2023-02-08T10:58:02.860Z,13.15
2023-02-08T11:00:39.568Z,11.68
2023-02-08T11:03:30.327Z,11.07
2023-02-08T11:06:00.411Z,11.38
2023-02-08T11:08:37.156Z,12.02
2023-02-08T11:11:10.583Z,11.77
2023-02-08T11:13:48.505Z,12.00
2023-02-08T11:16:27.003Z,12.18
2023-02-08T11:18:59.366Z,12.65
2023-02-08T11:21:35.604Z,11.60
2023-02-08T11:24:36.190Z,11.75
2023-02-08T11:27:22.935Z,11.77
2023-02-08T11:30:23.006Z,12.23
2023-02-08T11:33:20.728Z,12.32
2023-02-08T11:36:14.802Z,10.90
2023-02-08T11:38:44.289Z,11.15
2023-02-08T11:41:32.681Z,11.65
2023-02-08T11:44:09.264Z,11.52
2023-02-08T11:46:37.783Z,9.77
2023-02-08T11:49:04.927Z,10.10
2023-02-08T11:51:35.737Z,10.43
2023-02-08T11:54:03.877Z,11.93
2023-02-08T11:56:34.240Z,10.35
2023-02-08T11:59:22.650Z,10.30
2023-02-08T12:01:49.754Z,11.35
2023-02-08T12:04:18.069Z,9.98
2023-02-08T12:07:23.482Z,9.67
2023-02-08T12:10:12.633Z,10.33
2023-02-08T12:13:14.288Z,11.00
2023-02-08T12:15:57.872Z,9.80
2023-02-08T12:18:44.495Z,9.82
2023-02-08T12:21:15.453Z,10.40
2023-02-08T12:23:56.556Z,9.77
2023-02-08T12:26:46.212Z,9.48
2023-02-08T12:29:18.829Z,9.68
2023-02-08T12:31:58.399Z,9.20
2023-02-08T12:34:47.400Z,9.88
2023-02-08T12:37:48.533Z,9.07
2023-02-08T12:40:48.224Z,7.95
2023-02-08T12:43:24.123Z,8.80
2023-02-08T12:46:39.501Z,8.43
2023-02-08T12:49:27.977Z,6.85
2023-02-08T12:52:19.372Z,7.70
2023-02-08T12:54:56.447Z,6.88
2023-02-08T12:57:25.567Z,6.97
2023-02-08T13:00:17.906Z,7.32
2023-02-08T13:03:07.903Z,6.77
2023-02-08T13:05:41.684Z,7.47
2023-02-08T13:08:58.197Z,7.45
2023-02-08T13:11:40.118Z,6.38
2023-02-08T13:14:23.696Z,6.78
2023-02-08T13:16:55.885Z,6.25
2023-02-08T13:19:32.139Z,6.32
2023-02-08T13:22:00.865Z,7.03
2023-02-08T13:24:36.535Z,6.80
2023-02-08T13:27:08.203Z,6.93
2023-02-08T13:29:36.575Z,6.55
2023-02-08T13:32:14.589Z,7.07
2023-02-08T13:35:01.792Z,6.68
2023-02-08T13:37:34.266Z,8.23
2023-02-08T13:40:18.080Z,7.47
2023-02-08T13:42:52.677Z,6.97
2023-02-08T13:45:30.598Z,7.80
2023-02-08T13:48:00.756Z,8.02
2023-02-08T13:50:29.236Z,8.55
2023-02-08T13:52:56.423Z,9.20
2023-02-08T13:55:33.622Z,9.77
2023-02-08T13:58:02.844Z,8.35
2023-02-08T14:00:33.149Z,7.60
2023-02-08T14:03:15.279Z,7.38
2023-02-08T14:05:58.584Z,8.73
2023-02-08T14:08:35.259Z,7.35
2023-02-08T14:11:24.411Z,8.23
2023-02-08T14:14:01.002Z,7.50
2023-02-08T14:16:40.852Z,8.13
2023-02-08T14:19:18.204Z,8.13
2023-02-08T14:22:00.732Z,8.57
2023-02-08T14:24:34.250Z,7.70
2023-02-08T14:27:20.503Z,7.93
2023-02-08T14:29:56.419Z,8.00
2023-02-08T14:32:25.159Z,7.97
2023-02-08T14:35:18.312Z,8.85
2023-02-08T14:37:45.815Z,9.10
2023-02-08T14:40:22.920Z,8.60
2023-02-08T14:43:18.616Z,9.93
2023-02-08T14:45:46.990Z,7.57
2023-02-08T14:48:23.652Z,8.82
2023-02-08T14:51:18.585Z,9.40
2023-02-08T14:53:54.625Z,8.13
2023-02-08T14:56:23.453Z,9.23
2023-02-08T14:59:05.666Z,9.48
2023-02-08T15:01:46.947Z,7.60
2023-02-08T15:04:18.533Z,7.50
2023-02-08T15:06:53.449Z,8.10
2023-02-08T15:09:29.903Z,8.67
2023-02-08T15:12:20.088Z,8.40
2023-02-08T15:14:47.426Z,9.70
2023-02-08T15:17:41.084Z,9.32
2023-02-08T15:20:24.518Z,10.23
2023-02-08T15:23:21.497Z,9.90
2023-02-08T15:26:02.567Z,10.60
2023-02-08T15:28:33.765Z,8.68
2023-02-08T15:31:12.103Z,9.52
2023-02-08T15:33:42.427Z,9.43
2023-02-08T15:36:22.980Z,9.00
2023-02-08T15:38:50.097Z,9.20
2023-02-08T15:41:38.241Z,10.63
2023-02-08T15:44:21.234Z,9.10
2023-02-08T15:49:28.650Z,10.00
2023-02-08T15:51:59.612Z,9.05
2023-02-08T15:54:26.793Z,8.00
2023-02-08T15:56:59.396Z,9.05
2023-02-08T15:59:33.902Z,9.23
2023-02-08T16:02:27.126Z,9.07
2023-02-08T16:04:54.987Z,10.90
2023-02-08T16:07:37.397Z,9.25
2023-02-08T16:10:08.097Z,9.33
2023-02-08T16:12:37.198Z,9.20
2023-02-08T16:17:43.311Z,9.47
2023-02-08T16:20:33.379Z,8.43
2023-02-08T16:23:03.841Z,9.37
2023-02-08T16:25:46.273Z,8.30
2023-02-08T16:28:33.829Z,9.17
2023-02-08T16:31:04.743Z,10.83
2023-02-08T16:33:33.118Z,9.70
2023-02-08T16:36:03.470Z,9.03
2023-02-08T16:38:34.224Z,9.50
2023-02-08T16:41:12.464Z,8.90
2023-02-08T16:43:44.687Z,6.80
2023-02-08T16:46:11.620Z,8.60
2023-02-08T16:48:41.921Z,8.30
2023-02-08T16:51:31.376Z,9.83
2023-02-08T16:54:08.409Z,10.00
2023-02-08T16:56:36.501Z,9.87
2023-02-08T16:59:03.843Z,9.37
2023-02-08T17:01:31.927Z,8.87
2023-02-08T17:03:59.362Z,8.43
2023-02-08T17:06:35.160Z,9.60
2023-02-08T17:09:04.457Z,10.20
2023-02-08T17:13:59.211Z,9.40
2023-02-08T17:16:29.032Z,11.57
2023-02-08T17:18:59.207Z,9.50
2023-02-08T17:21:28.040Z,11.73
2023-02-08T17:23:55.870Z,9.05
2023-02-08T17:26:27.479Z,9.93
2023-02-08T17:28:56.245Z,9.33
2023-02-08T17:31:25.344Z,10.43
2023-02-08T17:33:52.768Z,9.03
2023-02-08T17:36:19.713Z,9.33
2023-02-08T17:38:48.171Z,9.83
2023-02-08T17:41:18.226Z,11.15
2023-02-08T17:43:46.110Z,10.47
2023-02-08T17:46:17.384Z,10.37
2023-02-08T17:48:46.140Z,9.80
2023-02-08T17:51:23.462Z,10.43
2023-02-08T17:53:51.138Z,9.80
2023-02-08T17:56:27.050Z,11.60
2023-02-08T17:58:55.165Z,10.87
2023-02-08T18:01:27.172Z,10.07
2023-02-08T18:03:54.990Z,10.57
2023-02-08T18:06:24.994Z,10.07
2023-02-08T18:08:54.058Z,9.80
2023-02-08T18:11:23.487Z,11.00
2023-02-08T18:13:52.692Z,10.93
2023-02-08T18:16:25.302Z,10.67
2023-02-08T18:18:59.198Z,12.30
2023-02-08T18:21:26.535Z,12.47
2023-02-08T18:23:55.422Z,11.07
2023-02-08T18:26:24.308Z,11.80
2023-02-08T18:28:52.671Z,10.90
2023-02-08T18:31:21.241Z,11.07
2023-02-08T18:33:49.891Z,13.50
2023-02-08T18:36:17.914Z,10.70
2023-02-08T18:38:47.189Z,10.77
2023-02-08T18:46:13.573Z,10.93
2023-02-08T18:48:41.227Z,11.87
2023-02-08T18:51:09.847Z,11.77
2023-02-08T18:53:40.241Z,13.75
2023-02-08T18:56:09.270Z,12.93
2023-02-08T18:58:36.714Z,14.80
2023-02-08T19:01:18.370Z,15.70
2023-02-08T19:03:49.240Z,16.77
2023-02-08T19:06:21.219Z,16.83
2023-02-08T19:08:51.731Z,15.40
2023-02-08T19:11:25.239Z,15.43
2023-02-08T19:13:54.901Z,15.33
2023-02-08T19:16:22.868Z,15.67
2023-02-08T19:18:50.253Z,15.60
2023-02-08T19:21:18.042Z,15.67
2023-02-08T19:23:53.368Z,15.23
2023-02-08T19:26:47.035Z,15.57
2023-02-08T19:29:17.566Z,15.77
2023-02-08T19:31:45.114Z,16.50
2023-02-08T19:34:12.612Z,15.87
2023-02-08T19:36:46.578Z,16.07
2023-02-08T19:39:17.175Z,15.23
2023-02-08T19:41:45.553Z,15.97
2023-02-08T19:44:15.525Z,16.10
2023-02-08T19:46:46.474Z,16.93
2023-02-08T19:49:14.030Z,17.00
2023-02-08T19:51:41.255Z,16.37
2023-02-08T19:54:13.231Z,17.27
2023-02-08T19:56:40.902Z,17.20
2023-02-08T19:59:15.274Z,15.93
2023-02-08T20:01:42.672Z,18.10
2023-02-08T20:04:09.660Z,18.70
2023-02-08T20:06:39.056Z,18.23
2023-02-08T20:09:08.020Z,19.33
2023-02-08T20:11:54.748Z,18.13
2023-02-08T20:14:23.695Z,16.25
2023-02-08T20:16:50.612Z,20.30
2023-02-08T20:19:18.021Z,20.30
2023-02-08T20:21:45.516Z,20.67
2023-02-08T20:24:13.121Z,19.50
2023-02-08T20:26:43.247Z,21.80
2023-02-08T20:29:11.236Z,22.60
2023-02-08T20:31:42.592Z,22.07
2023-02-08T20:34:13.481Z,20.93
2023-02-08T20:36:49.661Z,21.37
2023-02-08T20:39:20.802Z,21.73
2023-02-08T20:41:48.146Z,23.83
2023-02-08T20:44:17.582Z,22.30
2023-02-08T20:46:45.187Z,21.83
2023-02-08T20:49:15.234Z,24.73
2023-02-08T20:51:43.512Z,22.77
2023-02-08T20:54:11.130Z,23.40
2023-02-08T20:56:38.922Z,22.60
2023-02-08T20:59:08.828Z,24.67
2023-02-08T21:01:37.344Z,23.00
2023-02-08T21:04:05.054Z,25.05
2023-02-08T21:06:35.525Z,25.80
2023-02-08T21:09:07.433Z,26.77
2023-02-08T21:11:35.346Z,27.30
2023-02-08T21:14:02.929Z,26.77
2023-02-08T21:16:30.892Z,27.07
2023-02-08T21:18:59.216Z,26.77
2023-02-08T21:21:26.546Z,24.80
2023-02-08T21:23:53.765Z,26.87
2023-02-08T21:26:21.012Z,25.37
2023-02-08T21:28:53.278Z,26.20
2023-02-08T21:31:22.275Z,26.47
2023-02-08T21:33:49.856Z,25.65
2023-02-08T21:36:21.243Z,26.07
2023-02-08T21:38:48.910Z,27.23
2023-02-08T21:41:21.784Z,26.70
2023-02-08T21:43:50.167Z,26.10
2023-02-08T21:46:17.921Z,20.00
2023-02-08T21:49:04.631Z,25.43
2023-02-08T21:51:50.544Z,25.13
2023-02-08T21:54:39.002Z,26.63
2023-02-08T21:57:10.890Z,25.42
2023-02-08T21:59:38.502Z,26.30
2023-02-08T22:02:08.866Z,26.57
2023-02-08T22:04:37.145Z,26.87
2023-02-08T22:07:04.791Z,27.67
2023-02-08T22:09:31.799Z,28.93
2023-02-08T22:11:59.064Z,32.33
2023-02-08T22:14:26.252Z,34.47
2023-02-08T22:16:53.312Z,33.23
2023-02-08T22:19:20.249Z,31.97
2023-02-08T22:21:47.496Z,31.63
2023-02-08T22:24:14.395Z,32.73
2023-02-08T22:26:44.372Z,32.20
2023-02-08T22:29:11.946Z,35.13
2023-02-08T22:31:39.081Z,35.00
2023-02-08T22:34:06.038Z,34.43
2023-02-08T22:36:33.289Z,35.73
2023-02-08T22:39:00.148Z,34.13
2023-02-08T22:41:27.344Z,33.97
2023-02-08T22:43:54.475Z,36.00
2023-02-08T22:46:21.576Z,35.67
2023-02-08T22:48:48.489Z,38.50
2023-02-08T22:51:17.282Z,46.40
2023-02-08T22:53:44.961Z,46.63
2023-02-08T22:56:15.106Z,46.83
2023-02-08T22:58:42.225Z,49.10
2023-02-08T23:01:15.947Z,47.47
2023-02-08T23:03:43.785Z,46.30
2023-02-08T23:06:14.431Z,48.33
2023-02-08T23:08:44.754Z,50.87
2023-02-08T23:11:13.673Z,47.90
2023-02-08T23:13:41.018Z,49.97
2023-02-08T23:16:12.607Z,48.40
2023-02-08T23:18:40.303Z,45.90
2023-02-08T23:21:13.132Z,42.33
2023-02-08T23:23:40.815Z,42.57
2023-02-08T23:26:09.942Z,42.77
2023-02-08T23:28:37.422Z,41.37
2023-02-08T23:31:08.520Z,45.30
2023-02-08T23:33:37.996Z,61.87
2023-02-08T23:36:16.209Z,59.83
2023-02-08T23:38:43.596Z,57.17
2023-02-08T23:41:17.140Z,52.33
2023-02-08T23:43:47.487Z,47.97
2023-02-08T23:46:18.622Z,50.17
2023-02-08T23:51:32.564Z,41.83
2023-02-08T23:53:59.698Z,42.53
2023-02-08T23:56:29.486Z,39.57
2023-02-08T23:58:58.773Z,38.47
